Time;durP1;ratioP1;P1;durP2;ratioP2;P2;SDS_P1;SDS_P2;PMS_P1;PMS_P2;Temp;Humidity;BMP_temperature;BMP_pressure;BME280_temperature;BME280_humidity;BME280_pressure;Samples;Min_cycle;Max_cycle;Signal;HPM_P1;HPM_P2
2022/07/01 00:01:47;;;;;;;11.73;9.08;;;;;;;20.25;78.53;101042.24;1728187;82;21783;-87
2022/07/01 00:04:14;;;;;;;15.30;10.13;;;;;;;20.25;78.61;101031.09;1734171;82;21324;-88
2022/07/01 00:06:41;;;;;;;13.45;9.63;;;;;;;20.25;78.68;101032.89;1731081;82;21656;-89
2022/07/01 00:09:08;;;;;;;11.75;9.08;;;;;;;20.23;78.71;101036.03;1719805;82;21067;-89
2022/07/01 00:11:35;;;;;;;10.80;9.60;;;;;;;20.22;78.72;101039.16;1713357;82;21103;-88
2022/07/01 00:14:02;;;;;;;13.05;10.63;;;;;;;20.20;78.74;101049.86;1713606;82;21792;-89
2022/07/01 00:16:29;;;;;;;13.53;9.58;;;;;;;20.15;78.77;101049.02;1721695;82;21574;-88
2022/07/01 00:18:56;;;;;;;11.70;10.20;;;;;;;20.15;78.96;101053.02;1741447;82;21087;-88
2022/07/01 00:21:23;;;;;;;28.50;11.73;;;;;;;20.13;78.96;101044.59;1736563;82;21074;-88
2022/07/01 00:23:53;;;;;;;14.38;11.38;;;;;;;20.11;79.04;101047.28;1727914;82;21075;-89
2022/07/01 00:26:20;;;;;;;14.40;10.65;;;;;;;20.10;79.12;101045.53;1736031;82;21183;-90
2022/07/01 00:28:47;;;;;;;13.93;10.98;;;;;;;20.01;79.21;101042.94;1731449;82;21131;-89
2022/07/01 00:31:14;;;;;;;18.23;11.70;;;;;;;20.08;79.14;101074.02;1720201;82;22244;-90
2022/07/01 00:33:41;;;;;;;16.00;10.50;;;;;;;20.04;79.18;101080.76;1744978;82;21022;-92
2022/07/01 00:36:10;;;;;;;18.20;11.85;;;;;;;20.01;79.29;101085.69;1724559;82;21078;-89
2022/07/01 00:38:36;;;;;;;11.80;10.60;;;;;;;19.98;79.37;101089.71;1683496;85;21787;-90
2022/07/01 00:41:03;;;;;;;15.53;11.40;;;;;;;19.96;79.42;101087.51;1739305;82;21208;-90
2022/07/01 00:43:38;;;;;;;20.05;12.03;;;;;;;19.93;79.44;101088.43;1738061;82;21466;-90
2022/07/01 00:46:17;;;;;;;21.73;11.65;;;;;;;19.89;79.55;101093.80;1727931;82;21086;-90
2022/07/01 00:48:44;;;;;;;20.08;12.10;;;;;;;19.89;79.60;101096.47;1682195;83;21781;-89
2022/07/01 00:51:15;;;;;;;19.23;12.23;;;;;;;19.87;79.71;101098.27;1715254;83;21800;-90
2022/07/01 00:53:41;;;;;;;19.10;12.68;;;;;;;19.85;79.71;101096.06;1688152;82;21612;-86
2022/07/01 00:56:08;;;;;;;17.57;11.00;;;;;;;19.84;79.80;101088.92;1745316;82;22031;-86
2022/07/01 00:58:35;;;;;;;15.95;11.45;;;;;;;19.84;79.90;101085.83;1732555;82;21263;-86
2022/07/01 01:01:02;;;;;;;20.82;10.98;;;;;;;19.83;79.87;101081.83;1720361;82;21048;-86
2022/07/01 01:03:29;;;;;;;17.77;9.73;;;;;;;19.80;79.83;101084.05;1734969;82;21798;-86
2022/07/01 01:05:57;;;;;;;22.15;10.65;;;;;;;19.79;79.87;101078.30;1682856;82;21063;-87
2022/07/01 01:08:28;;;;;;;17.00;10.08;;;;;;;19.76;79.93;101073.87;1714001;82;21297;-87
2022/07/01 01:10:54;;;;;;;15.32;10.70;;;;;;;19.73;79.94;101083.23;1716146;82;21107;-86
2022/07/01 01:13:20;;;;;;;17.92;11.03;;;;;;;19.73;80.05;101089.03;1745555;81;21083;-86
2022/07/01 01:15:47;;;;;;;21.48;11.40;;;;;;;19.71;80.06;101100.14;1745410;82;22488;-87
2022/07/01 01:18:15;;;;;;;19.82;11.10;;;;;;;19.70;80.08;101101.03;1742029;81;21038;-87
2022/07/01 01:20:41;;;;;;;15.45;11.15;;;;;;;19.66;80.18;101096.61;1741691;82;21050;-86
2022/07/01 01:23:09;;;;;;;17.70;11.30;;;;;;;19.67;80.32;101097.03;1742377;82;21141;-86
2022/07/01 01:25:36;;;;;;;20.40;12.88;;;;;;;19.67;80.53;101098.37;1740745;82;21273;-86
2022/07/01 01:28:03;;;;;;;16.35;11.73;;;;;;;19.68;80.53;101108.17;1742990;82;21916;-87
2022/07/01 01:30:30;;;;;;;22.67;13.08;;;;;;;19.67;80.59;101115.73;1725637;82;21718;-87
2022/07/01 01:32:57;;;;;;;18.85;12.28;;;;;;;19.66;80.57;101108.63;1735803;82;21102;-87
2022/07/01 01:35:24;;;;;;;18.75;11.85;;;;;;;19.64;80.62;101105.96;1725725;82;21122;-88
2022/07/01 01:37:51;;;;;;;21.20;12.07;;;;;;;19.65;80.67;101120.20;1736703;82;21118;-87
2022/07/01 01:40:18;;;;;;;14.30;12.00;;;;;;;19.65;80.71;101122.41;1719606;82;21721;-88
2022/07/01 01:42:45;;;;;;;19.10;11.60;;;;;;;19.64;80.73;101113.97;1744408;81;21066;-88
2022/07/01 01:45:12;;;;;;;18.67;11.88;;;;;;;19.65;80.85;101110.39;1752452;81;22000;-86
2022/07/01 01:47:39;;;;;;;16.82;11.18;;;;;;;19.66;80.90;101103.29;1722572;81;21062;-88
2022/07/01 01:50:08;;;;;;;15.88;11.48;;;;;;;19.68;80.86;101106.83;1720590;81;21102;-88
2022/07/01 01:52:35;;;;;;;16.90;10.98;;;;;;;19.68;80.93;101106.38;1745683;81;21757;-86
2022/07/01 01:55:06;;;;;;;17.40;11.20;;;;;;;19.69;80.87;101112.17;1747236;81;21093;-87
2022/07/01 01:57:33;;;;;;;14.87;9.98;;;;;;;19.70;80.87;101098.36;1741561;81;21016;-88
2022/07/01 02:00:00;;;;;;;13.40;11.30;;;;;;;19.71;80.87;101106.82;1731210;81;21086;-87
2022/07/01 02:02:27;;;;;;;15.13;11.22;;;;;;;19.64;80.89;101100.63;1743758;81;21125;-86
2022/07/01 02:04:54;;;;;;;23.77;11.93;;;;;;;19.74;81.02;101106.81;1728239;82;21754;-86
2022/07/01 02:07:21;;;;;;;17.32;11.43;;;;;;;19.79;81.12;101111.22;1747802;81;21588;-86
2022/07/01 02:09:48;;;;;;;16.73;10.93;;;;;;;19.84;81.09;101106.29;1741392;81;21926;-87
2022/07/01 02:12:14;;;;;;;23.85;11.90;;;;;;;19.87;81.07;101106.28;1733136;81;21046;-87
2022/07/01 02:14:41;;;;;;;21.17;11.33;;;;;;;19.91;81.04;101125.39;1722318;81;21160;-87
2022/07/01 02:17:08;;;;;;;13.65;11.00;;;;;;;19.93;81.02;101116.48;1739022;81;22668;-87
2022/07/01 02:19:35;;;;;;;15.72;10.95;;;;;;;19.94;81.00;101132.94;1740936;81;21086;-86
2022/07/01 02:22:01;;;;;;;19.50;12.45;;;;;;;19.98;81.03;101124.45;1749739;81;21122;-86
2022/07/01 02:24:29;;;;;;;21.68;10.95;;;;;;;20.00;80.96;101130.66;1749974;81;21082;-86
2022/07/01 02:26:55;;;;;;;19.87;12.53;;;;;;;20.00;80.92;101128.87;1743160;81;21128;-86
2022/07/01 02:29:22;;;;;;;18.37;11.05;;;;;;;20.00;80.91;101130.20;1740728;81;21976;-86
2022/07/01 02:31:49;;;;;;;16.87;11.68;;;;;;;20.01;80.95;101121.77;1723442;81;21039;-87
2022/07/01 02:34:18;;;;;;;24.07;12.20;;;;;;;20.01;80.89;101120.42;1731063;81;21175;-87
2022/07/01 02:36:45;;;;;;;17.20;11.43;;;;;;;20.00;80.85;101114.63;1741650;81;21077;-87
2022/07/01 02:39:12;;;;;;;18.05;11.88;;;;;;;19.98;80.79;101114.64;1736665;81;21103;-88
2022/07/01 02:44:24;;;;;;;17.37;10.98;;;;;;;19.98;80.88;101117.77;1711702;83;21095;-87
2022/07/01 02:46:51;;;;;;;24.35;12.43;;;;;;;19.97;80.83;101111.55;1686575;83;21091;-87
2022/07/01 02:49:17;;;;;;;20.62;12.88;;;;;;;19.95;80.82;101110.67;1703578;83;21076;-88
2022/07/01 02:51:44;;;;;;;16.32;11.70;;;;;;;19.96;80.85;101108.42;1700689;83;21140;-88
2022/07/01 02:54:11;;;;;;;20.88;12.40;;;;;;;19.99;80.89;101103.52;1706741;83;21752;-87
2022/07/01 02:56:38;;;;;;;17.15;11.38;;;;;;;19.99;80.91;101096.84;1700137;83;21094;-86
2022/07/01 02:59:05;;;;;;;14.83;12.63;;;;;;;20.03;80.91;101096.34;1715660;83;21051;-86
2022/07/01 03:01:31;;;;;;;17.95;12.13;;;;;;;20.05;80.96;101087.89;1712443;83;21156;-87
2022/07/01 03:03:58;;;;;;;21.68;12.60;;;;;;;20.09;80.97;101086.50;1717323;83;21074;-87
2022/07/01 03:06:28;;;;;;;17.20;11.08;;;;;;;20.09;80.88;101087.83;1702192;83;22591;-88
2022/07/01 03:08:55;;;;;;;20.17;13.13;;;;;;;20.09;80.84;101078.94;1718600;83;21066;-87
2022/07/01 03:11:22;;;;;;;18.48;11.48;;;;;;;20.07;80.82;101075.39;1698503;83;21549;-87
2022/07/01 03:13:52;;;;;;;17.85;12.07;;;;;;;20.09;81.00;101076.27;1717491;83;21120;-87
2022/07/01 03:16:24;;;;;;;18.10;12.37;;;;;;;20.13;80.99;101069.98;1712196;83;21098;-87
2022/07/01 03:18:51;;;;;;;18.48;12.47;;;;;;;20.13;80.92;101056.16;1690439;84;21753;-86
2022/07/01 03:21:19;;;;;;;17.23;12.45;;;;;;;20.11;80.90;101051.75;1685123;84;21588;-87
2022/07/01 03:23:45;;;;;;;17.00;12.10;;;;;;;20.16;80.95;101053.48;1712771;83;21066;-87
2022/07/01 03:26:14;;;;;;;17.52;12.65;;;;;;;20.20;80.97;101053.87;1700181;83;21086;-87
2022/07/01 03:28:41;;;;;;;18.37;12.37;;;;;;;20.24;80.87;101053.86;1710330;83;21063;-87
2022/07/01 03:31:10;;;;;;;24.37;11.57;;;;;;;20.29;80.86;101060.02;1705971;83;22967;-87
2022/07/01 03:33:37;;;;;;;22.10;11.75;;;;;;;20.34;80.80;101057.73;1715463;82;21485;-87
2022/07/01 03:36:10;;;;;;;22.80;11.70;;;;;;;20.43;80.87;101055.88;1669601;84;21191;-87
2022/07/01 03:38:37;;;;;;;17.87;11.73;;;;;;;20.53;80.73;101051.76;1650988;85;21142;-86
2022/07/01 03:41:04;;;;;;;16.62;10.78;;;;;;;20.61;80.56;101049.45;1647522;84;21439;-86
2022/07/01 03:43:31;;;;;;;15.43;11.28;;;;;;;20.62;80.52;101040.08;1678847;84;21822;-86
2022/07/01 03:45:58;;;;;;;13.72;11.03;;;;;;;20.82;80.49;101050.55;1683381;84;21557;-86
2022/07/01 03:48:26;;;;;;;14.00;10.28;;;;;;;20.97;80.44;101046.80;1687808;84;21145;-86
2022/07/01 03:50:52;;;;;;;11.97;10.55;;;;;;;21.17;80.33;101046.50;1672305;84;21390;-88
2022/07/01 03:56:11;;;;;;;15.53;10.48;;;;;;;21.54;80.22;101054.91;1689212;84;21823;-87
2022/07/01 03:58:37;;;;;;;13.38;10.88;;;;;;;21.79;79.67;101029.52;1692780;84;21119;-87
2022/07/01 04:01:04;;;;;;;14.15;11.30;;;;;;;21.96;78.66;101059.61;1686414;84;21123;-87
2022/07/01 04:03:31;;;;;;;16.05;11.22;;;;;;;21.93;78.25;101065.89;1711375;83;21063;-85
2022/07/01 04:06:01;;;;;;;16.60;11.40;;;;;;;21.89;78.09;101068.20;1686137;83;21102;-87
2022/07/01 04:08:29;;;;;;;15.90;11.08;;;;;;;21.77;77.67;101048.75;1668899;83;23050;-86
2022/07/01 04:10:56;;;;;;;14.65;10.93;;;;;;;21.76;77.59;101057.72;1691492;84;21050;-87
2022/07/01 04:13:24;;;;;;;15.30;10.25;;;;;;;21.73;77.53;101058.64;1717628;83;21395;-86
2022/07/01 04:15:51;;;;;;;21.48;10.95;;;;;;;21.74;77.70;101061.30;1714300;82;21144;-87
2022/07/01 04:18:18;;;;;;;16.85;11.05;;;;;;;21.84;77.81;101059.81;1718319;83;21482;-87
2022/07/01 04:22:32;;;;;;;15.15;10.50;;;;;;;22.21;79.02;101058.70;1717958;83;21733;-88
2022/07/01 04:23:27;;;;;;;22.13;10.68;;;;;;;23.29;80.20;101068.64;1685370;83;21675;-89
2022/07/01 04:25:54;;;;;;;14.00;9.18;;;;;;;25.05;80.09;101062.28;1694111;84;21143;-89
2022/07/01 04:28:21;;;;;;;16.48;9.38;;;;;;;26.96;78.05;101058.08;1688416;84;21110;-92
2022/07/01 04:30:48;;;;;;;15.08;8.93;;;;;;;28.59;75.57;101045.55;1685744;84;21129;-89
2022/07/01 04:33:15;;;;;;;16.70;8.75;;;;;;;30.00;73.08;101044.15;1671391;85;21763;-95
2022/07/01 04:35:51;;;;;;;18.23;8.78;;;;;;;31.35;70.22;101044.11;1678752;84;21324;-93
2022/07/01 04:38:17;;;;;;;19.80;8.38;;;;;;;32.40;67.50;101038.40;1679443;84;21093;-87
2022/07/01 04:41:58;;;;;;;13.75;7.85;;;;;;;33.27;64.71;101039.69;1681844;84;21439;-88
2022/07/01 04:43:13;;;;;;;20.02;7.50;;;;;;;33.99;63.04;101035.83;1682870;84;21112;-86
2022/07/01 04:45:40;;;;;;;10.93;6.67;;;;;;;34.92;61.38;101037.92;1730955;82;21845;-87
2022/07/01 04:48:07;;;;;;;15.28;7.28;;;;;;;35.73;59.42;101038.36;1724418;82;21070;-87
2022/07/01 04:50:37;;;;;;;9.78;6.83;;;;;;;36.51;57.59;101028.14;1725754;82;21105;-90
2022/07/01 04:53:09;;;;;;;16.10;7.25;;;;;;;37.34;55.68;101037.00;1718660;82;21082;-87
2022/07/01 04:55:42;;;;;;;14.90;6.65;;;;;;;37.95;53.61;101038.29;1712774;81;21043;-87
2022/07/01 04:58:09;;;;;;;12.05;6.55;;;;;;;38.39;52.14;101023.44;1744809;82;21760;-88
2022/07/01 05:00:36;;;;;;;9.75;5.83;;;;;;;39.04;50.60;101035.09;1711531;83;21123;-88
2022/07/01 05:03:03;;;;;;;9.88;6.03;;;;;;;39.51;49.21;101032.22;1732869;82;21550;-94
2022/07/01 05:05:30;;;;;;;9.30;6.72;;;;;;;40.08;47.97;101033.78;1737840;81;21138;-86
2022/07/01 05:07:56;;;;;;;10.25;5.92;;;;;;;40.58;46.15;101034.41;1734519;81;21694;-89
2022/07/01 05:10:23;;;;;;;10.13;5.85;;;;;;;40.86;44.95;101023.92;1696343;83;21742;-84
2022/07/01 05:12:51;;;;;;;9.20;5.87;;;;;;;41.15;43.74;101020.48;1752704;81;21055;-91
2022/07/01 05:15:17;;;;;;;11.35;5.67;;;;;;;41.51;43.07;101018.31;1766240;81;21094;-89
2022/07/01 05:23:36;;;;;;;7.15;5.05;;;;;;;42.72;39.76;101022.73;1724695;82;22734;-89
2022/07/01 05:26:20;;;;;;;10.38;5.33;;;;;;;42.85;38.63;101018.98;1692250;83;21074;-91
2022/07/01 05:28:46;;;;;;;10.05;4.78;;;;;;;42.99;38.19;101022.22;1743323;82;21844;-92
2022/07/01 05:31:13;;;;;;;11.03;5.53;;;;;;;43.37;37.44;101034.63;1722432;81;21121;-90
2022/07/01 05:33:47;;;;;;;8.93;5.22;;;;;;;43.34;36.80;101031.33;1748310;81;21558;-89
2022/07/01 05:36:36;;;;;;;14.00;6.83;;;;;;;43.49;36.58;101035.16;1729970;81;21941;-90
2022/07/01 05:39:09;;;;;;;7.65;5.83;;;;;;;43.91;35.82;101033.31;1749601;81;21676;-93
2022/07/01 05:42:02;;;;;;;12.88;6.70;;;;;;;43.82;34.74;101038.02;1746177;82;21219;-96
2022/07/01 05:44:51;;;;;;;9.03;6.45;;;;;;;43.62;34.30;101057.70;1751522;81;21086;-94
2022/07/01 05:47:18;;;;;;;13.90;6.80;;;;;;;42.12;33.35;101065.93;1714349;83;21107;-92
2022/07/01 05:49:45;;;;;;;8.98;6.42;;;;;;;39.78;34.05;101067.34;1690180;84;22047;-93
2022/07/01 05:52:12;;;;;;;12.07;7.40;;;;;;;37.99;35.06;101071.36;1700752;84;21102;-93
2022/07/01 05:54:38;;;;;;;11.50;7.22;;;;;;;36.55;36.20;101060.30;1705489;83;21097;-91
2022/07/01 06:09:41;;;;;;;13.03;7.60;;;;;;;31.61;41.61;101070.80;1720284;83;21067;-94
2022/07/01 06:13:00;;;;;;;13.70;7.95;;;;;;;30.66;42.92;101075.12;1696406;84;21066;-96
2022/07/01 06:23:30;;;;;;;21.80;8.40;;;;;;;29.29;45.75;101049.98;1706011;84;21107;-96
2022/07/01 06:25:57;;;;;;;11.60;7.95;;;;;;;29.04;46.59;101053.35;1695804;81;80171;-95
2022/07/01 06:28:29;;;;;;;9.23;7.40;;;;;;;28.88;46.90;101058.59;1657790;85;21093;-95
2022/07/01 06:31:04;;;;;;;14.78;8.75;;;;;;;28.67;47.15;101063.67;1664381;83;22007;-90
2022/07/01 06:33:31;;;;;;;10.53;7.70;;;;;;;28.56;47.73;101059.21;1674511;84;21106;-91
2022/07/01 06:36:00;;;;;;;12.58;7.53;;;;;;;28.44;48.09;101060.14;1626007;87;21144;-93
2022/07/01 06:38:34;;;;;;;10.40;7.47;;;;;;;28.35;48.20;101057.84;1672906;84;21773;-92
2022/07/01 06:43:53;;;;;;;11.05;7.60;;;;;;;28.24;48.83;101049.31;1681359;83;21159;-91
2022/07/01 06:46:20;;;;;;;12.20;7.30;;;;;;;28.20;49.19;101056.69;1684084;83;21211;-91
2022/07/01 06:48:47;;;;;;;13.50;6.80;;;;;;;28.22;49.54;101060.69;1688056;84;23077;-94
2022/07/01 06:51:15;;;;;;;11.88;7.17;;;;;;;28.26;49.75;101055.53;1688520;84;21099;-91
2022/07/01 06:53:46;;;;;;;12.82;8.38;;;;;;;28.31;49.92;101058.45;1647112;84;21106;-90
2022/07/01 06:56:21;;;;;;;12.58;7.60;;;;;;;28.29;49.86;101058.13;1687618;84;21108;-91
2022/07/01 06:59:15;;;;;;;12.03;6.92;;;;;;;28.21;50.06;101051.70;1685875;83;22084;-91
2022/07/01 07:02:02;;;;;;;11.88;7.00;;;;;;;28.21;50.38;101053.50;1606934;87;21745;-91
2022/07/01 07:08:32;;;;;;;8.88;6.42;;;;;;;28.19;50.91;101050.85;1506842;94;21157;-90
2022/07/01 07:11:35;;;;;;;13.50;6.60;;;;;;;28.21;50.87;101050.79;1580146;87;21155;-91
2022/07/01 07:14:01;;;;;;;13.88;6.35;;;;;;;28.22;51.00;101045.80;1606188;88;21113;-91
2022/07/01 07:16:31;;;;;;;12.50;6.22;;;;;;;28.24;50.84;101046.13;1596370;87;21771;-90
2022/07/01 07:19:00;;;;;;;10.98;6.03;;;;;;;28.29;50.85;101048.16;1675666;84;21438;-91
2022/07/01 07:21:27;;;;;;;12.07;6.50;;;;;;;28.37;50.90;101049.17;1688150;84;21111;-91
2022/07/01 07:23:57;;;;;;;9.90;6.03;;;;;;;28.52;50.78;101047.64;1688778;83;21071;-89
2022/07/01 07:26:25;;;;;;;9.20;6.08;;;;;;;28.55;50.43;101048.86;1683678;84;21118;-91
2022/07/01 07:29:37;;;;;;;9.83;5.50;;;;;;;28.59;50.18;101044.19;1699564;83;21147;-92
2022/07/01 07:32:12;;;;;;;10.45;5.50;;;;;;;28.69;50.23;101052.28;1678385;85;21103;-92
2022/07/01 07:34:48;;;;;;;10.32;5.67;;;;;;;28.96;49.89;101046.52;1637519;84;21087;-91
2022/07/01 07:37:15;;;;;;;10.63;6.47;;;;;;;29.27;49.56;101052.75;1685164;83;21094;-92
2022/07/01 07:39:46;;;;;;;10.48;6.05;;;;;;;29.47;49.32;101046.37;1656622;84;36552;-92
2022/07/01 07:42:13;;;;;;;9.05;5.42;;;;;;;29.67;49.41;101046.70;1682447;84;21905;-91
2022/07/01 07:44:40;;;;;;;6.55;5.50;;;;;;;29.91;49.18;101050.53;1683374;84;21107;-92
2022/07/01 07:47:10;;;;;;;7.85;5.65;;;;;;;30.08;48.67;101049.17;1683239;83;21108;-92
2022/07/01 07:49:54;;;;;;;10.40;5.70;;;;;;;30.17;48.30;101054.62;1661754;83;21123;-94
2022/07/01 07:52:22;;;;;;;11.60;6.03;;;;;;;30.30;48.31;101063.87;1677132;83;21302;-92
2022/07/01 07:54:51;;;;;;;13.15;5.85;;;;;;;30.24;48.08;101061.48;1682821;84;21384;-92
2022/07/01 07:57:17;;;;;;;9.83;5.87;;;;;;;30.15;48.08;101062.84;1642602;85;21080;-92
2022/07/01 07:59:44;;;;;;;11.63;6.83;;;;;;;30.02;48.09;101067.15;1685111;84;21079;-93
2022/07/01 08:02:11;;;;;;;12.35;6.95;;;;;;;30.02;48.33;101063.95;1685017;85;21091;-91
2022/07/01 08:04:38;;;;;;;10.10;6.50;;;;;;;30.11;48.68;101054.91;1685306;83;21166;-91
2022/07/01 08:07:08;;;;;;;9.38;6.25;;;;;;;30.18;48.65;101044.14;1685166;83;22592;-92
2022/07/01 08:09:34;;;;;;;9.85;5.87;;;;;;;30.24;48.50;101054.70;1685580;85;21163;-92
2022/07/01 08:12:05;;;;;;;9.25;5.85;;;;;;;30.22;48.56;101052.55;1681308;85;21107;-91
2022/07/01 08:14:33;;;;;;;12.05;6.60;;;;;;;30.25;48.63;101051.01;1684571;85;21083;-92
2022/07/01 08:17:00;;;;;;;7.90;5.95;;;;;;;30.21;48.38;101046.70;1684685;83;21092;-93
2022/07/01 08:19:29;;;;;;;9.28;5.80;;;;;;;30.07;48.35;101039.75;1684739;83;21757;-91
2022/07/01 08:21:56;;;;;;;8.08;6.15;;;;;;;29.96;48.29;101045.76;1660848;85;21651;-91
2022/07/01 08:24:23;;;;;;;8.70;7.10;;;;;;;29.87;48.41;101047.59;1657097;85;22163;-91
2022/07/01 08:26:50;;;;;;;6.92;5.83;;;;;;;29.88;48.75;101048.84;1688897;84;21151;-90
2022/07/01 08:29:16;;;;;;;11.38;6.78;;;;;;;29.82;48.65;101045.95;1693564;84;21115;-91
2022/07/01 08:31:43;;;;;;;12.98;6.62;;;;;;;29.77;48.76;101046.70;1693535;84;22604;-91
2022/07/01 08:34:15;;;;;;;9.53;7.30;;;;;;;29.73;49.05;101049.17;1693496;84;21143;-91
2022/07/01 08:36:41;;;;;;;11.55;7.28;;;;;;;29.65;49.15;101048.13;1693553;84;21019;-90
2022/07/01 08:39:08;;;;;;;8.35;6.87;;;;;;;29.59;49.20;101045.73;1692646;84;21707;-92
2022/07/01 08:41:34;;;;;;;11.00;7.15;;;;;;;29.52;49.28;101048.34;1690806;84;21142;-90
2022/07/01 08:44:04;;;;;;;13.00;7.83;;;;;;;29.47;49.25;101053.14;1690213;83;21746;-90
2022/07/01 08:46:31;;;;;;;10.40;7.85;;;;;;;29.45;49.49;101045.53;1668209;83;22295;-91
2022/07/01 08:48:59;;;;;;;16.07;7.83;;;;;;;29.40;49.61;101044.91;1693090;84;21087;-93
2022/07/01 08:51:26;;;;;;;10.03;7.53;;;;;;;29.33;49.95;101047.51;1693914;84;21039;-91
2022/07/01 08:53:53;;;;;;;14.87;7.42;;;;;;;29.35;50.13;101046.47;1669246;84;21091;-90
2022/07/01 08:59:06;;;;;;;9.83;7.50;;;;;;;29.43;50.48;101037.50;1693547;84;21136;-90
2022/07/01 09:01:33;;;;;;;14.18;7.72;;;;;;;29.45;50.61;101042.37;1669290;84;21065;-90
2022/07/01 09:04:19;;;;;;;11.00;8.15;;;;;;;29.43;50.52;101041.57;1693549;83;21142;-91
2022/07/01 09:06:47;;;;;;;11.15;7.92;;;;;;;29.42;50.68;101041.64;1693808;84;21151;-92
2022/07/01 09:09:20;;;;;;;11.85;8.48;;;;;;;29.41;50.88;101048.91;1693556;83;21789;-92
2022/07/01 09:11:53;;;;;;;12.10;8.23;;;;;;;29.37;50.85;101049.98;1691022;84;21544;-92
2022/07/01 09:15:06;;;;;;;11.75;8.10;;;;;;;29.37;51.17;101041.84;1690404;84;21043;-91
2022/07/01 09:17:51;;;;;;;13.18;8.28;;;;;;;29.45;51.20;101045.08;1665610;84;21107;-92
2022/07/01 09:20:28;;;;;;;10.50;9.13;;;;;;;29.53;51.20;101039.27;1649850;85;21682;-86
2022/07/01 09:23:10;;;;;;;10.55;7.90;;;;;;;29.63;51.40;101039.69;1641251;85;22683;-86
2022/07/01 09:25:47;;;;;;;13.25;7.50;;;;;;;29.72;51.35;101041.94;1678952;84;21458;-86
2022/07/01 09:28:23;;;;;;;12.58;8.35;;;;;;;29.83;51.42;101041.44;1687076;84;21493;-86
2022/07/01 09:30:51;;;;;;;11.80;7.80;;;;;;;29.93;51.57;101044.06;1690860;84;21121;-88
2022/07/01 09:33:27;;;;;;;9.73;8.20;;;;;;;29.96;51.33;101049.34;1687100;83;21133;-87
2022/07/01 09:35:55;;;;;;;8.18;7.42;;;;;;;29.96;51.21;101049.34;1688013;83;21754;-87
2022/07/01 09:38:23;;;;;;;12.00;8.38;;;;;;;29.96;51.20;101046.63;1676662;83;21099;-87
2022/07/01 09:40:57;;;;;;;15.48;8.73;;;;;;;29.94;51.11;101043.57;1657799;85;21065;-87
2022/07/01 09:43:29;;;;;;;12.00;7.80;;;;;;;30.01;51.52;101038.23;1689285;84;21027;-87
2022/07/01 09:46:05;;;;;;;9.53;8.48;;;;;;;30.20;51.25;101038.14;1686623;84;21458;-87
2022/07/01 09:48:40;;;;;;;13.88;7.97;;;;;;;30.15;50.74;101041.60;1686937;84;21702;-87
2022/07/01 09:51:09;;;;;;;9.48;8.58;;;;;;;29.99;50.93;101041.51;1688676;84;21156;-87
2022/07/01 09:53:38;;;;;;;14.23;8.70;;;;;;;30.01;51.17;101026.92;1687455;83;21651;-88
2022/07/01 09:56:05;;;;;;;15.23;8.83;;;;;;;29.95;51.47;101034.48;1687573;84;21121;-88
2022/07/01 09:58:37;;;;;;;12.30;8.70;;;;;;;29.95;51.94;101033.13;1686459;83;21109;-88
2022/07/01 10:01:05;;;;;;;13.75;8.85;;;;;;;30.05;51.75;101035.75;1687315;84;21709;-89
2022/07/01 10:03:35;;;;;;;14.55;9.13;;;;;;;30.01;51.35;101027.37;1689979;84;21520;-89
2022/07/01 10:06:20;;;;;;;16.20;9.65;;;;;;;29.95;51.43;101039.91;1689890;83;21545;-89
2022/07/01 10:09:23;;;;;;;16.35;8.80;;;;;;;29.98;51.70;101041.13;1684599;84;21141;-89
2022/07/01 10:12:36;;;;;;;12.23;10.32;;;;;;;30.02;51.93;101047.66;1686167;84;21013;-91
2022/07/01 10:15:08;;;;;;;13.03;10.40;;;;;;;29.89;51.95;101039.75;1685674;84;21825;-90
2022/07/01 10:17:48;;;;;;;13.45;10.88;;;;;;;29.70;52.51;101047.92;1687240;84;21491;-89
2022/07/01 10:20:18;;;;;;;15.75;11.45;;;;;;;29.73;52.66;101059.08;1687564;83;21188;-89
2022/07/01 10:22:46;;;;;;;12.05;10.90;;;;;;;29.77;52.52;101072.47;1685429;84;21563;-88
2022/07/01 10:25:38;;;;;;;20.55;11.57;;;;;;;29.88;52.57;101074.62;1687773;84;21161;-89
2022/07/01 10:28:29;;;;;;;19.45;12.88;;;;;;;30.02;52.69;101066.66;1691156;84;21989;-88
2022/07/01 10:31:03;;;;;;;13.45;12.05;;;;;;;30.35;52.58;101063.19;1693611;84;21096;-88
2022/07/01 10:33:45;;;;;;;12.28;11.18;;;;;;;30.50;52.19;101061.95;1692698;84;21197;-88
2022/07/01 10:36:32;;;;;;;14.98;12.03;;;;;;;30.67;52.05;101067.37;1693089;84;21127;-88
2022/07/01 10:39:07;;;;;;;15.53;11.73;;;;;;;30.73;51.99;101058.88;1690426;83;21624;-92
2022/07/01 10:41:41;;;;;;;11.48;10.38;;;;;;;30.77;51.95;101056.39;1691981;84;21162;-86
2022/07/01 10:44:14;;;;;;;12.85;11.55;;;;;;;30.72;51.93;101040.81;1670314;84;26651;-86
2022/07/01 10:47:02;;;;;;;15.25;12.10;;;;;;;30.69;51.76;101053.68;1694001;83;21542;-87
2022/07/01 10:49:53;;;;;;;13.00;11.83;;;;;;;30.60;52.05;101070.02;1692696;84;21131;-88
2022/07/01 10:52:20;;;;;;;15.60;9.48;;;;;;;30.72;52.42;101078.85;1690901;84;21099;-87
2022/07/01 10:54:49;;;;;;;13.53;9.00;;;;;;;30.87;51.82;101078.98;1694145;84;21744;-87
2022/07/01 10:57:24;;;;;;;13.48;8.00;;;;;;;30.68;51.01;101033.80;1689684;84;21071;-87
2022/07/01 11:00:00;;;;;;;12.35;7.33;;;;;;;31.06;50.52;101062.07;1693821;84;21134;-86
2022/07/01 11:02:37;;;;;;;10.00;7.17;;;;;;;31.23;49.79;101046.16;1680574;84;21075;-87
2022/07/01 11:05:12;;;;;;;9.30;6.67;;;;;;;31.36;48.87;101040.91;1695509;84;21032;-86
2022/07/01 11:07:45;;;;;;;7.17;5.72;;;;;;;31.45;48.56;101039.02;1693265;84;21734;-87
2022/07/01 11:10:15;;;;;;;9.58;6.03;;;;;;;31.63;48.17;101033.02;1693214;84;21080;-87
2022/07/01 11:12:43;;;;;;;10.75;5.65;;;;;;;31.77;47.69;101025.39;1693391;83;21090;-89
2022/07/01 11:15:15;;;;;;;8.58;5.75;;;;;;;31.85;47.43;101023.56;1693796;84;22630;-86
2022/07/01 11:17:48;;;;;;;6.87;5.70;;;;;;;31.91;46.62;101009.58;1691280;84;21083;-87
2022/07/01 11:20:15;;;;;;;8.45;6.05;;;;;;;31.78;46.31;101019.86;1693843;84;21780;-89
2022/07/01 11:22:42;;;;;;;5.92;5.20;;;;;;;31.62;46.39;101012.70;1692193;83;21074;-88
2022/07/01 11:25:13;;;;;;;6.00;5.40;;;;;;;31.67;46.35;101017.39;1693936;84;21490;-88
2022/07/01 11:27:40;;;;;;;6.15;5.10;;;;;;;31.45;45.84;101009.09;1684296;84;21146;-88
2022/07/01 11:30:11;;;;;;;8.33;6.10;;;;;;;31.30;45.97;101016.78;1693048;83;21107;-88
2022/07/01 11:32:50;;;;;;;8.20;6.12;;;;;;;31.09;46.23;101022.98;1693381;84;22038;-88
2022/07/01 11:41:11;;;;;;;9.25;5.92;;;;;;;30.96;46.97;101007.84;1695446;84;21001;-87
2022/07/01 11:43:39;;;;;;;6.10;5.50;;;;;;;31.10;47.18;101005.69;1683068;84;21040;-88
2022/07/01 11:46:06;;;;;;;10.65;6.00;;;;;;;31.20;46.96;101006.44;1695528;84;21756;-88
2022/07/01 11:48:53;;;;;;;11.57;5.58;;;;;;;31.31;46.85;101000.38;1695157;83;21008;-88
2022/07/01 11:51:17;;;;;;;11.15;5.90;;;;;;;31.35;46.67;100991.56;1647534;84;21028;-87
2022/07/01 11:53:49;;;;;;;8.63;5.42;;;;;;;31.46;46.59;100987.73;1695226;84;21008;-88
2022/07/01 11:56:16;;;;;;;6.55;5.75;;;;;;;31.67;46.66;100980.16;1695151;83;21154;-88
2022/07/01 11:58:51;;;;;;;10.58;6.03;;;;;;;31.92;46.68;100967.78;1695680;84;21736;-88
2022/07/01 12:01:28;;;;;;;6.22;5.62;;;;;;;32.10;46.59;100965.33;1694699;84;21086;-88
2022/07/01 12:03:58;;;;;;;7.97;5.58;;;;;;;32.26;46.29;100960.27;1695184;84;21012;-88
2022/07/01 12:06:24;;;;;;;7.67;5.83;;;;;;;32.34;45.95;100956.11;1692067;83;21471;-88
2022/07/01 12:08:51;;;;;;;9.33;6.05;;;;;;;32.27;45.78;100959.32;1695496;84;21016;-88
2022/07/01 12:11:18;;;;;;;6.20;5.67;;;;;;;32.21;45.87;100955.14;1694961;83;21755;-88
2022/07/01 12:13:46;;;;;;;9.58;5.70;;;;;;;32.14;45.74;100955.13;1695534;84;20953;-88
2022/07/01 12:16:12;;;;;;;8.95;5.95;;;;;;;32.12;46.09;100944.31;1695301;84;21009;-88
2022/07/01 12:19:02;;;;;;;8.10;6.17;;;;;;;32.15;46.13;100940.52;1695926;84;21815;-88